La Roche-Sur-Yon, Francia

8:50 AM CEST en Septiembre 03, 2015 (GMT +0200)
Les Ajoncs | | Change Station
CLOSE
Current Station
Aeropuerto
Location: La Roche-Sur-Yon,
Altura: 299 ft
Estaciones meteorológicas cercanas

Alt 299 ft 46.70 °N, 1.38 °W | Updated 20 minutes ago

Clear
Despejado
50 ° F
Sensación térmica 50 ° F
N
5
Viento Variable Viento desde Norte

Hoy
Alta -- | Baja -- ° F
--% Posibilidad de precipitaciones
Ayer
Alta -- | Baja -- ° F
Precip. -- pul
7:27 AM 8:41 PM
Gibosa menguante, 73% visible
Presión 30.06 pul
Visibilidad -9999.0 Millas
Nubes
Punto de rocío 48 ° F
Humedad 94%
Precipitaciones 0.00 pul
Espesor de la nieve No disponible.
UV No disponible.
Polen No disponible.
Calidad del aire No disponible.
Flu Activity No disponible.
METAR LFRI 030630Z AUTO 36004KT CAVOK 10/09 Q1018
Presión 30.06 pul
Visibilidad -9999.0 Millas
Nubes
Punto de rocío 48 ° F
Humedad 94%
Precipitaciones 0.00 pul
Espesor de la nieve No disponible.
UV No disponible.
Polen No disponible.
Calidad del aire No disponible.
Flu Activity No disponible.
METAR LFRI 030630Z AUTO 36004KT CAVOK 10/09 Q1018

10-Day Weather Forecast

×

Almanac

Astronomía

Sep. 03, 2015 Salida Puesta
Hora real
Crepúsculo civil
Crepúsculo náutico
Crepúsculo astronómico
Luna
Horas de luz
Horas de luz
Tomorrow will be .
, % of the Moon is Illuminated

Extremos de hoy

Máximos del país Bajas del país

Community

WunderPhotos

Upload Photos

1,851,913 ¡fotos cargadas!

WunderBlogs® & News

Nearby

Calidad del aire

  Calidad del aire Índice AQ Contaminante
Not available.

Grosos de nieve

Estación Profundido Altura

Actividad de terremotos

Ciudad Distance Mag. Tiempo y dato
Magnitud mínima muestra es 2,5.

Temperaturas de aguas costeras

Lugar Temperatura

Stations

Estaciones meteorológicas cercanas

Ubicación de la estación Temp. Vientos helados Punto de rocío Humedad Viento Precip. Alt Actualizado Tipo